Latest Weather Observations for Kilmore Gap

IDV60801

Issued at 7:42 am EST Thursday 23 May 2024 (issued every 10 minutes, with the page automatically refreshed every 10 minutes)

About weather observations | Map of weather stations | Latest weather observations for VIC | Other Formats
Station Details ID: 088162 Name: KILMORE GAP Lat: -37.38 Lon: 144.97 Height: 527.8 m
Data from the previous 72 hours. | See also: Recent months at Kilmore Gap
Date/Time
EST
Temp
°C
App
Temp
°C
Dew
Point
°C
Rel
Hum
%
Delta-T
°C
Wind Press
QNH
hPa
Press
MSL
hPa
Rain since
9am
mm
Dir  Spd
km/h
Gust
km/h
Spd
kts
Gust
kts
23/07:30am 8.2 5.6 7.6 96 0.3 S 11 17 6 9 1028.1 1028.4 0.0
23/07:00am 8.2 4.8 7.6 96 0.3 S 15 19 8 10 1027.6 1027.9 0.0
23/06:30am 8.3 5.3 7.7 96 0.3 S 13 15 7 8 1027.3 1027.5 0.0
23/06:00am 8.1 5.1 7.5 96 0.3 SSW 13 17 7 9 1027.3 1027.5 0.0
23/05:30am 8.4 5.4 7.8 96 0.3 S 13 20 7 11 1027.1 1027.3 0.0
23/05:00am 8.5 5.5 7.9 96 0.3 SSW 13 19 7 10 1027.2 1027.4 0.0
23/04:30am 8.6 5.7 8.0 96 0.3 SSW 13 19 7 10 1027.0 1027.2 0.0
23/04:00am 8.5 5.5 7.9 96 0.3 SSW 13 20 7 11 1026.9 1027.1 0.0
23/03:30am 8.6 5.7 8.0 96 0.3 SSW 13 22 7 12 1027.0 1027.2 0.0
23/03:00am 8.4 5.0 7.8 96 0.3 SSW 15 19 8 10 1026.9 1027.1 0.0
23/02:30am 8.4 5.0 7.8 96 0.3 SSW 15 20 8 11 1027.0 1027.2 0.0
23/02:00am 8.8 6.0 8.4 97 0.2 S 13 19 7 10 1027.1 1027.3 0.0
23/01:30am 8.7 5.5 8.3 97 0.2 S 15 19 8 10 1027.0 1027.2 0.0
23/01:25am 8.7 5.5 8.3 97 0.2 S 15 19 8 10 1027.0 1027.2 0.0
23/01:18am 8.7 5.8 8.3 97 0.2 S 13 17 7 9 1027.0 1027.2 0.0
23/01:07am 8.7 5.8 8.3 97 0.2 S 13 19 7 10 1027.1 1027.3 0.0
23/01:00am 8.7 5.5 8.3 97 0.2 S 15 20 8 11 1027.1 1027.3 0.0
23/12:55am 8.7 5.8 8.3 97 0.2 S 13 19 7 10 1027.0 1027.2 0.0
23/12:30am 8.6 5.7 8.2 97 0.2 S 13 17 7 9 1027.0 1027.2 0.0
23/12:00am 8.6 5.0 8.2 97 0.2 S 17 20 9 11 1026.9 1027.1 0.0
 
Date/Time
EST
Temp
°C
App
Temp
°C
Dew
Point
°C
Rel
Hum
%
Delta-T
°C
Wind Press
QNH
hPa
Press
MSL
hPa
Rain since
9am
mm
Dir  Spd
km/h
Gust
km/h
Spd
kts
Gust
kts
22/11:30pm 8.6 5.0 8.2 97 0.2 SSE 17 20 9 11 1026.9 1027.1 0.0
22/11:00pm 8.4 5.1 8.0 97 0.2 SSE 15 19 8 10 1027.0 1027.2 0.0
22/10:30pm 8.4 5.1 8.0 97 0.2 SSE 15 17 8 9 1027.2 1027.4 0.0
22/10:00pm 8.5 5.2 8.1 97 0.2 SSE 15 17 8 9 1027.2 1027.4 0.0
22/09:30pm 8.3 4.9 7.7 96 0.3 SSE 15 19 8 10 1027.4 1027.6 0.0
22/09:24pm 8.2 4.7 7.4 95 0.4 SSE 15 19 8 10 1027.4 1027.6 0.0
22/09:00pm 8.6 5.2 7.7 94 0.4 S 15 20 8 11 1027.5 1027.8 0.0
22/08:30pm 8.3 4.4 7.2 93 0.5 SSE 17 17 9 9 1027.5 1027.8 0.0
22/08:00pm 8.7 5.3 7.5 92 0.6 SSE 15 19 8 10 1027.4 1027.6 0.0
22/07:30pm 8.8 4.6 7.4 91 0.7 S 19 24 10 13 1027.3 1027.5 0.0
22/07:24pm 8.6 4.4 7.4 92 0.6 S 19 24 10 13 1027.3 1027.5 0.0
22/07:00pm 8.3 4.0 6.9 91 0.7 S 19 22 10 12 1027.2 1027.4 0.0
22/06:30pm 8.6 4.1 7.1 90 0.7 S 20 24 11 13 1027.1 1027.3 0.0
22/06:00pm 9.0 4.6 6.6 85 1.1 S 19 24 10 13 1026.9 1027.1 0.0
22/05:30pm 8.9 4.8 6.2 83 1.3 S 17 20 9 11 1026.8 1027.0 0.0
22/05:00pm 9.6 6.0 6.9 83 1.3 S 15 19 8 10 1026.7 1026.9 0.0
22/04:30pm 9.8 7.0 6.9 82 1.4 S 11 15 6 8 1026.6 1026.8 0.0
22/04:00pm 10.8 7.6 6.7 76 2.0 S 13 17 7 9 1026.3 1026.6 0.0
22/03:30pm 12.0 8.9 7.3 73 2.3 S 13 22 7 12 1026.3 1026.6 0.0
22/03:00pm 11.0 7.4 6.6 74 2.1 SSW 15 20 8 11 1026.3 1026.6 0.0
22/02:30pm 10.8 7.5 6.2 73 2.2 S 13 20 7 11 1026.4 1026.7 0.0
22/02:00pm 11.4 8.9 6.5 72 2.4 S 9 13 5 7 1026.6 1026.8 0.0
22/01:30pm 11.5 9.0 6.4 71 2.5 SSE 9 15 5 8 1026.7 1026.9 0.0
22/01:00pm 11.0 8.5 6.7 75 2.1 SSW 9 13 5 7 1027.0 1027.2 0.0
22/12:30pm 11.0 8.2 6.9 76 2.0 SSE 11 19 6 10 1027.4 1027.6 0.0
22/12:00pm 10.7 7.9 7.0 78 1.8 SSE 11 17 6 9 1027.7 1028.0 0.0
22/11:30am 10.2 7.5 7.4 83 1.4 SSE 11 15 6 8 1028.2 1028.5 0.0
22/11:00am 10.0 7.7 7.6 85 1.2 S 9 15 5 8 1028.2 1028.5 0.0
22/10:30am 9.5 7.3 7.8 89 0.8 SSE 9 13 5 7 1028.2 1028.5 0.0
22/10:00am 8.4 5.3 7.3 93 0.5 SSE 13 17 7 9 1028.2 1028.5 0.0
22/09:30am 7.7 4.9 7.1 96 0.3 S 11 15 6 8 1028.1 1028.4 0.0
22/09:20am 7.6 5.2 7.2 97 0.2 S 9 13 5 7 1028.0 1028.3 0.0
22/09:18am 7.5 5.1 7.1 97 0.2 S 9 13 5 7 1028.0 1028.3 0.0
22/09:05am 7.1 4.6 6.7 97 0.2 SSW 9 15 5 8 1028.0 1028.3 0.0
22/09:00am 7.0 4.1 6.6 97 0.2 SW 11 15 6 8 1028.0 1028.3 0.2
22/08:30am 6.5 2.8 6.1 97 0.2 SW 15 17 8 9 1028.3 1028.6 0.2
22/08:03am 6.3 2.5 5.7 96 0.3 SW 15 19 8 10 1028.0 1028.3 0.2
22/08:00am 6.4 2.2 5.8 96 0.3 SW 17 20 9 11 1028.0 1028.3 0.2
22/07:56am 6.3 2.1 5.6 95 0.3 SSW 17 20 9 11 1028.0 1028.3 0.2
22/07:54am 6.3 2.5 5.6 95 0.3 SSW 15 20 8 11 1028.0 1028.3 0.2
22/07:30am 5.8 2.2 5.1 95 0.3 S 13 17 7 9 1027.7 1028.0 0.2
22/07:00am 5.6 1.6 5.0 96 0.3 S 15 17 8 9 1027.6 1027.9 0.2
22/06:47am 5.8 2.2 5.2 96 0.3 S 13 17 7 9 1027.6 1027.9 0.2
22/06:30am 5.9 2.4 5.3 96 0.3 S 13 17 7 9 1027.6 1027.9 0.2
22/06:06am 6.1 1.9 5.5 96 0.3 S 17 19 9 10 1027.5 1027.8 0.2
22/06:00am 6.0 2.1 5.4 96 0.3 S 15 19 8 10 1027.4 1027.6 0.2
22/05:30am 5.9 2.7 5.3 96 0.3 SSW 11 15 6 8 1027.2 1027.4 0.2
22/05:14am 5.9 2.0 5.3 96 0.3 SSW 15 19 8 10 1027.2 1027.4 0.2
22/05:00am 6.0 2.9 5.4 96 0.3 SSW 11 15 6 8 1027.1 1027.3 0.2
22/04:30am 6.0 2.9 5.4 96 0.3 S 11 15 6 8 1027.1 1027.3 0.2
22/04:00am 6.2 2.7 5.6 96 0.3 S 13 17 7 9 1026.9 1027.1 0.2
22/03:43am 6.1 2.6 5.5 96 0.3 S 13 19 7 10 1026.9 1027.1 0.2
22/03:30am 5.8 2.6 5.2 96 0.3 S 11 15 6 8 1027.1 1027.3 0.2
22/03:26am 5.7 2.1 5.1 96 0.3 S 13 17 7 9 1027.1 1027.3 0.2
22/03:00am 5.9 2.4 5.3 96 0.3 S 13 19 7 10 1027.3 1027.5 0.2
22/02:52am 5.9 1.6 5.3 96 0.3 S 17 19 9 10 1027.3 1027.5 0.2
22/02:42am 6.0 1.7 5.4 96 0.3 SSE 17 20 9 11 1027.3 1027.5 0.2
22/02:30am 6.0 2.1 5.4 96 0.3 SSE 15 19 8 10 1027.3 1027.5 0.2
22/02:10am 6.1 1.5 5.5 96 0.3 S 19 20 10 11 1027.6 1027.9 0.2
22/02:00am 5.9 1.6 5.2 95 0.3 SSE 17 20 9 11 1027.5 1027.8 0.2
22/01:30am 6.0 1.7 5.4 96 0.3 SSE 17 20 9 11 1027.8 1028.1 0.0
22/01:00am 6.0 2.1 5.4 96 0.3 SSE 15 19 8 10 1027.9 1028.2 0.0
22/12:41am 6.0 1.1 5.3 95 0.3 SSE 20 24 11 13 1028.1 1028.4 0.0
22/12:31am 6.2 1.4 5.5 95 0.3 S 20 26 11 14 1028.3 1028.6 0.0
22/12:30am 6.1 1.3 5.4 95 0.3 S 20 26 11 14 1028.3 1028.6 0.0
22/12:01am 6.2 1.4 5.5 95 0.3 S 20 24 11 13 1028.4 1028.7 0.0
22/12:00am 6.2 1.4 5.5 95 0.3 S 20 26 11 14 1028.4 1028.7 0.0
 
Date/Time
EST
Temp
°C
App
Temp
°C
Dew
Point
°C
Rel
Hum
%
Delta-T
°C
Wind Press
QNH
hPa
Press
MSL
hPa
Rain since
9am
mm
Dir  Spd
km/h
Gust
km/h
Spd
kts
Gust
kts
21/11:30pm 6.5 2.3 5.6 94 0.4 S 17 24 9 13 1028.7 1028.9 0.0
21/11:00pm 6.4 1.6 5.7 95 0.3 S 20 30 11 16 1028.8 1029.0 0.0
21/10:48pm 6.5 1.4 5.8 95 0.3 S 22 28 12 15 1028.8 1029.0 0.0
21/10:45pm 6.3 1.1 5.6 95 0.3 S 22 30 12 16 1028.8 1029.0 0.0
21/10:34pm 6.2 1.4 5.5 95 0.3 S 20 28 11 15 1028.8 1029.0 0.0
21/10:30pm 6.2 1.4 5.5 95 0.3 S 20 28 11 15 1028.8 1029.0 0.0
21/10:00pm 6.3 1.5 5.4 94 0.4 S 20 26 11 14 1028.8 1029.0 0.0
21/09:30pm 6.1 1.2 4.9 92 0.5 S 20 30 11 16 1028.8 1029.0 0.0
21/09:00pm 6.2 1.2 4.8 91 0.6 S 20 28 11 15 1028.7 1028.9 0.0
21/08:30pm 6.4 1.6 4.9 90 0.7 S 19 26 10 14 1028.8 1029.0 0.0
21/08:00pm 6.4 2.0 4.9 90 0.7 S 17 24 9 13 1028.9 1029.1 0.0
21/07:30pm 6.8 2.1 5.3 90 0.7 S 19 24 10 13 1028.9 1029.1 0.0
21/07:00pm 7.3 3.0 5.4 88 0.9 S 17 24 9 13 1028.9 1029.1 0.0
21/06:30pm 7.4 2.7 5.0 85 1.1 S 19 22 10 12 1028.7 1028.9 0.0
21/06:00pm 7.8 3.0 4.9 82 1.3 S 19 24 10 13 1028.7 1028.9 0.0
21/05:30pm 8.0 3.1 4.9 81 1.4 SSE 20 24 11 13 1028.6 1028.8 0.0
21/05:00pm 8.3 3.5 4.9 79 1.5 SSE 19 22 10 12 1028.3 1028.6 0.0
21/04:30pm 8.4 3.6 4.8 78 1.6 S 19 28 10 15 1028.3 1028.6 0.0
21/04:00pm 8.5 3.6 5.1 79 1.6 S 20 26 11 14 1028.4 1028.7 0.0
21/03:30pm 8.4 3.8 5.7 83 1.3 S 19 28 10 15 1028.3 1028.6 0.0
21/03:13pm 8.5 3.2 5.1 79 1.6 S 22 30 12 16 1028.3 1028.6 0.0
21/03:00pm 8.5 4.2 5.4 81 1.4 S 17 28 9 15 1028.3 1028.6 0.0
21/02:39pm 8.4 3.7 6.2 86 1.0 S 20 28 11 15 1028.4 1028.7 0.0
21/02:30pm 8.6 4.5 6.1 84 1.2 S 17 26 9 14 1028.4 1028.7 0.0
21/02:00pm 8.7 3.0 4.7 76 1.8 SSE 24 28 13 15 1028.6 1028.8 0.0
21/01:30pm 8.5 3.7 5.4 81 1.4 SSE 20 26 11 14 1028.8 1029.0 0.0
21/01:00pm 8.2 3.7 6.0 86 1.0 SSW 19 24 10 13 1029.1 1029.3 0.0
21/12:55pm 8.1 3.9 5.9 86 1.0 SSW 17 24 9 13 1029.2 1029.5 0.0
21/12:30pm 7.6 4.0 6.7 94 0.4 SSW 15 20 8 11 1029.5 1029.8 0.0
21/12:13pm 7.6 3.6 6.5 93 0.5 S 17 22 9 12 1029.6 1029.9 0.0
21/12:10pm 8.0 4.4 6.8 92 0.6 S 15 20 8 11 1029.6 1029.9 0.0
21/12:00pm 7.9 4.7 6.8 93 0.5 SSW 13 19 7 10 1029.7 1030.0 0.0
21/11:30am 8.1 5.1 7.5 96 0.3 S 13 19 7 10 1030.1 1030.4 0.0
21/11:00am 7.3 4.1 6.7 96 0.3 S 13 17 7 9 1030.2 1030.5 0.0
21/10:30am 7.6 4.4 7.0 96 0.3 SSE 13 19 7 10 1030.1 1030.4 0.0
21/10:00am 7.1 4.6 6.5 96 0.3 SSW 9 17 5 9 1030.1 1030.4 0.0
21/09:44am 6.9 4.0 6.3 96 0.3 SW 11 15 6 8 1029.9 1030.2 0.0
21/09:30am 6.9 4.0 6.3 96 0.3 SW 11 15 6 8 1029.9 1030.2 0.0
21/09:00am 6.6 3.6 6.0 96 0.3 SW 11 13 6 7 1029.9 1030.2 2.2
21/08:30am 6.3 3.2 5.7 96 0.3 SSW 11 17 6 9 1029.7 1030.0 2.2
21/08:24am 6.2 3.1 5.6 96 0.3 SSW 11 17 6 9 1029.7 1030.0 2.2
21/08:00am 6.4 3.0 5.8 96 0.3 S 13 19 7 10 1029.6 1029.9 2.2
21/07:30am 6.6 2.5 6.0 96 0.3 SSE 17 20 9 11 1029.2 1029.5 2.2
21/07:00am 6.7 2.2 6.1 96 0.3 S 19 26 10 14 1028.9 1029.1 2.2
21/06:30am 6.9 1.9 6.3 96 0.3 SSE 22 28 12 15 1028.8 1029.0 2.2
21/06:00am 6.9 1.9 6.3 96 0.3 SSE 22 28 12 15 1028.7 1028.9 2.2
21/05:30am 6.9 1.9 6.3 96 0.3 SSE 22 28 12 15 1028.6 1028.8 2.2
21/05:00am 6.9 2.4 6.3 96 0.3 SSE 19 24 10 13 1028.6 1028.8 2.2
21/04:30am 6.9 2.3 6.3 96 0.3 SSE 20 28 11 15 1028.4 1028.7 2.2
21/04:00am 6.9 2.4 6.3 96 0.3 SSE 19 24 10 13 1028.3 1028.6 2.2
21/03:30am 6.9 2.4 6.3 96 0.3 SSE 19 22 10 12 1028.6 1028.8 2.2
21/03:00am 7.2 2.6 6.6 96 0.3 SSE 20 28 11 15 1028.7 1028.9 2.2
21/02:30am 7.2 2.2 6.6 96 0.3 SSE 22 32 12 17 1028.8 1029.0 2.2
21/02:00am 7.3 2.7 6.7 96 0.3 SSE 20 28 11 15 1028.8 1029.0 2.2
21/01:30am 7.3 2.9 6.7 96 0.3 SSE 19 24 10 13 1028.8 1029.0 2.2
21/01:00am 7.3 2.9 6.7 96 0.3 SSE 19 24 10 13 1029.0 1029.2 2.2
21/12:30am 7.3 2.4 6.7 96 0.3 SSE 22 30 12 16 1029.0 1029.2 2.2
21/12:00am 7.5 2.2 6.9 96 0.3 SSE 24 30 13 16 1029.1 1029.3 2.0
 
Date/Time
EST
Temp
°C
App
Temp
°C
Dew
Point
°C
Rel
Hum
%
Delta-T
°C
Wind Press
QNH
hPa
Press
MSL
hPa
Rain since
9am
mm
Dir  Spd
km/h
Gust
km/h
Spd
kts
Gust
kts
20/11:30pm 7.6 2.8 7.2 97 0.2 SSE 22 32 12 17 1029.1 1029.3 2.0
20/11:17pm 7.6 2.8 7.2 97 0.2 SSE 22 28 12 15 1029.0 1029.2 2.0
20/11:02pm 7.6 3.2 7.2 97 0.2 S 20 30 11 16 1029.1 1029.3 2.0
20/11:00pm 7.6 3.2 7.2 97 0.2 S 20 30 11 16 1029.1 1029.3 2.0
20/10:30pm 7.5 3.0 7.1 97 0.2 S 20 28 11 15 1029.1 1029.3 2.0
20/10:00pm 7.5 2.6 7.1 97 0.2 S 22 28 12 15 1029.1 1029.3 2.0
20/09:30pm 7.7 3.3 7.3 97 0.2 S 20 28 11 15 1029.2 1029.5 2.0
20/09:00pm 7.7 3.3 7.3 97 0.2 S 20 30 11 16 1029.1 1029.3 2.0
20/08:37pm 7.8 3.6 7.4 97 0.2 S 19 28 10 15 1029.0 1029.2 2.0
20/08:30pm 7.7 3.5 7.3 97 0.2 S 19 26 10 14 1029.0 1029.2 2.0
20/08:10pm 7.6 3.7 7.0 96 0.3 S 17 24 9 13 1028.8 1029.0 2.0
20/08:05pm 7.5 3.6 6.9 96 0.3 S 17 24 9 13 1028.7 1028.9 2.0
20/08:00pm 7.5 3.2 6.9 96 0.3 S 19 26 10 14 1028.7 1028.9 2.0
20/07:33pm 7.3 2.0 6.7 96 0.3 S 24 35 13 19 1028.6 1028.8 2.0
20/07:31pm 7.3 2.0 6.7 96 0.3 S 24 33 13 18 1028.6 1028.8 2.0
20/07:30pm 7.2 1.9 6.6 96 0.3 S 24 32 13 17 1028.6 1028.8 2.0
20/07:09pm 7.4 2.9 6.8 96 0.3 S 20 32 11 17 1028.6 1028.8 2.0
20/07:05pm 7.4 2.5 6.8 96 0.3 S 22 32 12 17 1028.6 1028.8 2.0
20/07:00pm 7.4 2.1 6.8 96 0.3 S 24 33 13 18 1028.4 1028.7 2.0
20/06:57pm 7.6 2.7 7.0 96 0.3 S 22 33 12 18 1028.3 1028.6 2.0
20/06:52pm 7.6 3.1 7.0 96 0.3 S 20 33 11 18 1028.3 1028.6 2.0
20/06:31pm 7.8 3.5 7.2 96 0.3 SSW 19 28 10 15 1028.2 1028.5 2.0
20/06:30pm 7.8 3.5 7.2 96 0.3 SSW 19 28 10 15 1028.2 1028.5 2.0
20/06:08pm 7.9 3.4 7.1 95 0.4 SSW 20 32 11 17 1028.0 1028.3 2.0
20/06:00pm 7.8 2.9 7.1 95 0.3 SSW 22 35 12 19 1027.9 1028.2 2.0
20/05:39pm 7.7 3.2 6.8 94 0.4 SSW 20 32 11 17 1027.8 1028.1 2.0
20/05:30pm 7.6 3.1 6.9 95 0.3 SSW 20 30 11 16 1027.8 1028.1 2.0
20/05:23pm 7.6 3.1 6.9 95 0.3 SSW 20 28 11 15 1027.7 1028.0 2.0
20/05:00pm 7.8 3.3 6.9 94 0.4 SSW 20 26 11 14 1027.6 1027.9 2.0
20/04:53pm 8.0 3.5 7.1 94 0.4 SSW 20 30 11 16 1027.5 1027.8 2.0
20/04:34pm 8.2 4.0 7.3 94 0.4 SSW 19 28 10 15 1027.5 1027.8 2.0
20/04:30pm 8.3 4.1 7.4 94 0.4 SSW 19 28 10 15 1027.4 1027.6 2.0
20/04:00pm 8.9 5.1 7.7 92 0.6 SSW 17 24 9 13 1027.1 1027.3 2.0
20/03:49pm 8.9 4.5 7.4 90 0.7 SSW 20 33 11 18 1027.1 1027.3 2.0
20/03:30pm 9.3 5.0 7.7 90 0.8 S 20 32 11 17 1027.0 1027.2 2.0
20/03:26pm 9.3 5.0 7.9 91 0.7 S 20 32 11 17 1026.9 1027.1 2.0
20/03:00pm 9.3 4.2 7.7 90 0.8 S 24 35 13 19 1026.8 1027.0 2.0
20/02:50pm 9.1 3.2 7.4 89 0.8 S 28 35 15 19 1026.7 1026.9 2.0
20/02:30pm 9.2 4.0 7.2 87 1.0 S 24 35 13 19 1026.6 1026.8 2.0
20/02:00pm 8.8 2.4 6.8 87 1.0 S 30 35 16 19 1026.7 1026.9 2.0
20/01:56pm 8.7 2.6 6.7 87 1.0 SSE 28 35 15 19 1026.7 1026.9 2.0
20/01:30pm 9.5 5.5 8.9 96 0.3 SSE 20 28 11 15 1026.7 1026.9 2.0
20/01:00pm 8.4 3.7 7.8 96 0.3 SSE 22 32 12 17 1026.9 1027.1 2.0
20/12:37pm 8.6 3.6 8.0 96 0.3 SSE 24 32 13 17 1027.0 1027.2 2.0
20/12:30pm 8.7 4.1 8.1 96 0.3 SSE 22 32 12 17 1027.0 1027.2 2.0
20/12:06pm 8.5 3.8 7.9 96 0.3 S 22 32 12 17 1027.3 1027.5 2.0
20/12:00pm 8.4 3.0 7.8 96 0.3 SSE 26 35 14 19 1027.4 1027.6 2.0
20/11:58am 8.4 2.6 7.8 96 0.3 SSE 28 37 15 20 1027.3 1027.5 2.0
20/11:43am 8.6 2.8 8.0 96 0.3 SSE 28 37 15 20 1027.5 1027.8 2.0
20/11:42am 8.5 2.7 7.9 96 0.3 SSE 28 37 15 20 1027.5 1027.8 2.0
20/11:30am 8.4 2.6 7.8 96 0.3 SSE 28 39 15 21 1027.6 1027.9 2.0
20/11:19am 8.4 3.7 7.8 96 0.3 S 22 32 12 17 1027.5 1027.8 2.0
20/11:06am 8.5 3.8 7.9 96 0.3 S 22 32 12 17 1027.6 1027.9 2.0
20/11:00am 8.5 3.5 7.9 96 0.3 S 24 30 13 16 1027.5 1027.8 2.0
20/10:53am 8.3 3.2 7.7 96 0.3 SSE 24 32 13 17 1027.5 1027.8 2.0
20/10:48am 8.0 2.8 7.4 96 0.3 SSE 24 35 13 19 1027.5 1027.8 2.0
20/10:30am 8.0 3.2 7.4 96 0.3 S 22 32 12 17 1027.4 1027.6 1.4
20/10:00am 8.4 3.4 8.0 97 0.2 S 24 35 13 19 1027.0 1027.2 0.0
20/09:30am 7.7 2.8 7.1 96 0.3 S 22 32 12 17 1026.8 1027.0 0.0
20/09:00am 7.6 2.7 7.0 96 0.3 SSW 22 35 12 19 1026.6 1026.8 1.8
20/08:30am 7.6 3.7 7.0 96 0.3 SSW 17 28 9 15 1026.1 1026.4 1.8
20/08:00am 7.5 3.2 6.9 96 0.3 S 19 28 10 15 1025.9 1026.2 1.8

Other formats

Comma delimited format used in spreadsheet applications
http://www.bom.gov.au/fwo/IDV60801/IDV60801.94860.axf

JavaScript Object Notation format (JSON) in row-major order
http://www.bom.gov.au/fwo/IDV60801/IDV60801.94860.json

Data quality

Most of these data are generated automatically and are frequently updated. Quality checks on data are not normally performed. It is possible for incorrect values to appear. Refer to information at About Latest Weather Observations and please check the disclaimer before using these data.